Time;durP1;ratioP1;P1;durP2;ratioP2;P2;SDS_P1;SDS_P2;PMS_P1;PMS_P2;Temp;Humidity;BMP_temperature;BMP_pressure;BME280_temperature;BME280_humidity;BME280_pressure;Samples;Min_cycle;Max_cycle;Signal;HPM_P1;HPM_P2
2020/12/10 00:01:37;;;;;;;14.77;12.33;;;6.90;77.20;;;;;;5029814;28;20619;-49
2020/12/10 00:04:04;;;;;;;22.00;15.53;;;6.70;76.70;;;;;;5045955;28;20672;-49
2020/12/10 00:06:32;;;;;;;16.33;13.70;;;6.50;77.50;;;;;;5048201;28;20626;-49
2020/12/10 00:08:58;;;;;;;18.80;15.27;;;6.50;77.90;;;;;;5049490;28;20640;-49
2020/12/10 00:11:25;;;;;;;21.13;13.50;;;6.50;78.10;;;;;;5049503;28;20651;-50
2020/12/10 00:13:52;;;;;;;19.43;15.80;;;6.60;78.20;;;;;;5048836;28;20729;-49
2020/12/10 00:16:19;;;;;;;19.00;14.90;;;6.70;77.50;;;;;;5049863;28;20744;-49
2020/12/10 00:18:45;;;;;;;21.93;15.23;;;6.70;76.80;;;;;;5041430;28;20707;-49
2020/12/10 00:21:12;;;;;;;16.97;15.17;;;6.70;76.80;;;;;;5047132;28;20658;-48
2020/12/10 00:23:40;;;;;;;16.10;13.07;;;6.80;77.10;;;;;;5038550;28;20638;-48
2020/12/10 00:26:07;;;;;;;18.17;15.40;;;6.70;76.70;;;;;;5051602;28;21022;-47
2020/12/10 00:28:34;;;;;;;19.93;15.20;;;6.70;76.50;;;;;;5051236;28;21040;-49
2020/12/10 00:31:01;;;;;;;14.63;12.60;;;6.80;76.60;;;;;;5051770;28;20676;-48
2020/12/10 00:33:27;;;;;;;18.80;14.37;;;6.70;76.50;;;;;;5049541;28;21181;-49
2020/12/10 00:35:54;;;;;;;16.30;13.50;;;6.80;76.30;;;;;;5051724;28;21246;-49
2020/12/10 00:38:21;;;;;;;20.03;15.20;;;6.80;76.20;;;;;;5037913;28;20691;-49
2020/12/10 00:40:49;;;;;;;17.47;15.33;;;6.80;76.00;;;;;;5046928;28;20687;-48
2020/12/10 00:43:15;;;;;;;15.77;12.87;;;6.90;76.60;;;;;;5053614;28;20764;-47
2020/12/10 00:45:42;;;;;;;15.73;13.67;;;6.90;75.50;;;;;;5051333;28;20627;-49
2020/12/10 00:48:10;;;;;;;19.93;17.00;;;6.80;75.50;;;;;;5053007;28;21002;-49
2020/12/10 00:50:37;;;;;;;21.97;16.73;;;6.90;76.30;;;;;;5052850;28;20662;-47
2020/12/10 00:53:04;;;;;;;19.30;16.13;;;6.90;75.40;;;;;;5047727;28;21240;-48
2020/12/10 00:55:30;;;;;;;16.00;14.20;;;6.90;75.20;;;;;;5051405;28;20658;-48
2020/12/10 00:57:58;;;;;;;19.13;15.70;;;6.90;75.30;;;;;;5050568;28;20626;-49
2020/12/10 01:00:25;;;;;;;15.27;13.57;;;6.90;75.30;;;;;;5040556;28;20669;-47
2020/12/10 01:02:52;;;;;;;18.40;15.20;;;6.80;74.90;;;;;;5032693;28;20738;-47
2020/12/10 01:05:19;;;;;;;18.70;14.90;;;6.90;74.90;;;;;;5050612;28;20627;-48
2020/12/10 01:07:48;;;;;;;19.50;16.90;;;6.90;74.60;;;;;;5052758;28;21146;-49
2020/12/10 01:10:16;;;;;;;18.23;14.30;;;7.00;74.60;;;;;;5051503;28;20666;-48
2020/12/10 01:12:42;;;;;;;15.23;12.90;;;7.00;74.50;;;;;;5052247;28;20626;-48
2020/12/10 01:15:10;;;;;;;16.07;14.20;;;7.00;74.10;;;;;;5045245;28;20704;-49
2020/12/10 01:17:38;;;;;;;16.27;14.60;;;7.10;73.90;;;;;;5041417;28;20688;-49
2020/12/10 01:20:08;;;;;;;16.87;13.40;;;7.10;73.90;;;;;;5032677;28;21037;-49
2020/12/10 01:22:35;;;;;;;17.07;14.70;;;7.00;74.40;;;;;;5032389;28;20631;-48
2020/12/10 01:25:02;;;;;;;14.50;12.90;;;7.00;74.60;;;;;;5042942;28;20641;-47
2020/12/10 01:27:29;;;;;;;14.30;12.70;;;7.00;73.50;;;;;;5052225;28;20667;-49
2020/12/10 01:29:56;;;;;;;15.20;12.47;;;7.00;73.50;;;;;;5047860;28;20658;-49
2020/12/10 01:32:23;;;;;;;17.90;14.37;;;7.00;73.50;;;;;;5051791;28;20623;-47
2020/12/10 01:34:50;;;;;;;17.80;12.60;;;7.00;73.50;;;;;;5051979;28;20708;-49
2020/12/10 01:37:17;;;;;;;14.67;12.60;;;7.10;73.20;;;;;;5052586;28;20774;-49
2020/12/10 01:39:44;;;;;;;15.23;13.63;;;7.00;73.20;;;;;;5045040;28;20709;-49
2020/12/10 01:42:11;;;;;;;15.80;12.77;;;7.00;73.10;;;;;;5032355;28;20634;-48
2020/12/10 01:44:38;;;;;;;14.60;12.67;;;7.00;72.80;;;;;;5034064;28;20627;-49
2020/12/10 01:47:05;;;;;;;17.20;14.30;;;7.00;73.00;;;;;;5032662;28;20690;-48
2020/12/10 01:49:33;;;;;;;16.67;14.00;;;7.00;73.00;;;;;;5032438;28;20785;-49
2020/12/10 01:52:00;;;;;;;16.67;14.87;;;7.00;72.70;;;;;;5039076;28;21082;-48
2020/12/10 01:54:27;;;;;;;16.47;13.87;;;7.10;72.60;;;;;;5051740;28;20631;-48
2020/12/10 01:56:53;;;;;;;14.23;12.63;;;7.10;73.00;;;;;;5051797;28;21185;-49
2020/12/10 01:59:20;;;;;;;15.83;14.27;;;7.10;73.10;;;;;;5050725;28;21039;-47
2020/12/10 02:01:47;;;;;;;18.33;16.10;;;7.10;73.10;;;;;;5036725;28;20615;-49
2020/12/10 02:04:27;;;;;;;17.87;13.47;;;7.10;72.90;;;;;;5051221;28;20680;-49
2020/12/10 02:06:55;;;;;;;15.20;13.50;;;7.20;72.50;;;;;;5051454;28;20635;-48
2020/12/10 02:09:21;;;;;;;16.53;14.83;;;7.20;72.20;;;;;;5051575;28;20678;-49
2020/12/10 02:11:48;;;;;;;17.90;14.70;;;7.20;72.20;;;;;;5051348;28;20622;-48
2020/12/10 02:14:15;;;;;;;15.87;14.33;;;7.20;71.80;;;;;;5046322;28;20997;-49
2020/12/10 02:16:42;;;;;;;16.17;14.47;;;7.20;71.70;;;;;;5047451;28;20732;-49
2020/12/10 02:19:09;;;;;;;13.33;11.90;;;7.10;71.80;;;;;;5040390;28;21157;-50
2020/12/10 02:21:36;;;;;;;12.90;11.47;;;7.10;72.00;;;;;;5042945;28;20956;-50
2020/12/10 02:24:03;;;;;;;14.23;12.27;;;7.10;71.50;;;;;;5043062;28;21184;-49
2020/12/10 02:26:30;;;;;;;13.53;12.13;;;7.20;71.30;;;;;;5040370;28;20619;-49
2020/12/10 02:28:58;;;;;;;14.37;12.80;;;7.20;71.10;;;;;;5050890;28;20623;-50
2020/12/10 02:31:25;;;;;;;13.97;12.07;;;7.10;71.50;;;;;;5051293;28;20664;-50
2020/12/10 02:33:57;;;;;;;16.83;14.17;;;7.10;71.10;;;;;;5050490;28;20700;-49
2020/12/10 02:36:24;;;;;;;14.10;12.17;;;7.10;71.30;;;;;;5051382;28;20687;-49
2020/12/10 02:38:51;;;;;;;17.10;12.47;;;7.00;71.40;;;;;;5040427;28;20652;-48
2020/12/10 02:41:18;;;;;;;16.10;13.47;;;7.00;71.60;;;;;;5037618;28;20752;-51
2020/12/10 02:43:45;;;;;;;16.07;14.37;;;7.00;71.70;;;;;;5049192;28;20620;-51
2020/12/10 02:46:12;;;;;;;15.40;13.90;;;7.00;71.90;;;;;;5051223;28;20612;-51
2020/12/10 02:48:39;;;;;;;13.00;11.00;;;7.00;71.50;;;;;;5051624;28;20625;-52
2020/12/10 02:51:08;;;;;;;14.37;12.83;;;7.00;71.20;;;;;;5050925;28;20763;-48
2020/12/10 02:53:35;;;;;;;12.50;11.20;;;7.00;71.40;;;;;;5049985;28;20636;-49
2020/12/10 02:56:06;;;;;;;15.60;13.37;;;7.00;71.60;;;;;;5032314;28;20657;-48
2020/12/10 02:58:34;;;;;;;15.20;12.80;;;7.00;71.30;;;;;;5044681;28;20639;-51
2020/12/10 03:01:00;;;;;;;15.77;13.00;;;7.00;71.20;;;;;;5050007;28;20705;-51
2020/12/10 03:03:27;;;;;;;14.70;12.27;;;7.10;71.10;;;;;;5050478;28;20686;-50
2020/12/10 03:05:54;;;;;;;15.13;13.53;;;7.10;71.10;;;;;;5050891;28;20780;-50
2020/12/10 03:08:21;;;;;;;14.70;12.70;;;7.20;71.20;;;;;;5050101;28;20623;-48
2020/12/10 03:10:50;;;;;;;16.47;14.70;;;7.10;71.30;;;;;;5050033;28;21181;-48
2020/12/10 03:13:18;;;;;;;13.97;12.40;;;7.00;71.00;;;;;;5049083;28;20704;-48
2020/12/10 03:15:46;;;;;;;15.13;13.53;;;7.10;71.30;;;;;;5046480;28;20652;-49
2020/12/10 03:18:12;;;;;;;16.43;13.67;;;7.10;71.30;;;;;;5046713;28;20704;-50
2020/12/10 03:20:39;;;;;;;18.23;13.67;;;7.10;71.00;;;;;;5048765;28;20681;-49
2020/12/10 03:23:06;;;;;;;18.50;14.57;;;7.20;70.70;;;;;;5049053;28;21062;-50
2020/12/10 03:25:33;;;;;;;17.90;14.97;;;7.20;70.60;;;;;;5049845;28;20648;-49
2020/12/10 03:28:00;;;;;;;15.70;12.80;;;7.20;70.50;;;;;;5050136;28;20715;-49
2020/12/10 03:30:26;;;;;;;15.93;14.23;;;7.10;71.20;;;;;;5034985;28;20667;-50
2020/12/10 03:32:55;;;;;;;15.00;12.13;;;7.10;72.00;;;;;;5039343;28;20624;-49
2020/12/10 03:35:22;;;;;;;16.97;11.87;;;7.10;72.10;;;;;;5049984;28;20827;-50
2020/12/10 03:37:49;;;;;;;14.00;11.93;;;7.10;71.50;;;;;;5050416;28;20674;-52
2020/12/10 03:40:16;;;;;;;12.90;11.30;;;7.00;70.70;;;;;;5050084;28;20654;-51
2020/12/10 03:42:43;;;;;;;17.00;14.30;;;7.00;71.10;;;;;;5034076;28;20958;-52
2020/12/10 03:45:10;;;;;;;16.23;14.53;;;6.90;71.30;;;;;;5048761;28;20664;-52
2020/12/10 03:47:37;;;;;;;18.17;14.00;;;6.90;71.40;;;;;;5050277;28;21012;-52
2020/12/10 03:50:05;;;;;;;15.30;13.17;;;7.00;71.50;;;;;;5049905;28;20712;-53
2020/12/10 03:52:31;;;;;;;15.87;13.77;;;7.00;71.50;;;;;;5049840;28;20647;-52
2020/12/10 03:54:58;;;;;;;18.50;14.03;;;7.00;71.50;;;;;;5049216;28;21248;-50
2020/12/10 03:57:25;;;;;;;16.30;14.23;;;7.00;71.60;;;;;;5050446;28;20680;-50
2020/12/10 03:59:52;;;;;;;19.87;16.60;;;7.00;71.80;;;;;;5049195;28;21023;-48
2020/12/10 04:02:18;;;;;;;16.80;14.03;;;7.00;71.80;;;;;;5047150;28;20762;-50
2020/12/10 04:04:45;;;;;;;22.50;15.33;;;7.00;71.90;;;;;;5049452;28;20623;-52
2020/12/10 04:07:13;;;;;;;19.00;15.70;;;7.10;72.30;;;;;;5049489;28;20638;-49
2020/12/10 04:09:41;;;;;;;17.20;15.10;;;7.10;72.30;;;;;;5050067;28;20689;-50
2020/12/10 04:12:08;;;;;;;19.37;16.10;;;7.10;72.10;;;;;;5049949;28;20618;-49
2020/12/10 04:14:35;;;;;;;21.83;15.57;;;7.00;71.80;;;;;;5048876;28;20622;-49
2020/12/10 04:17:04;;;;;;;19.13;16.30;;;7.10;72.10;;;;;;5049649;28;20645;-49
2020/12/10 04:19:30;;;;;;;21.17;17.50;;;7.00;72.20;;;;;;5041967;28;21212;-49
2020/12/10 04:21:59;;;;;;;19.67;16.83;;;7.10;72.20;;;;;;5049387;28;21109;-49
2020/12/10 04:24:26;;;;;;;19.00;15.10;;;7.10;71.80;;;;;;5047579;28;20629;-49
2020/12/10 04:26:53;;;;;;;19.33;15.37;;;7.10;71.80;;;;;;5049368;28;20685;-49
2020/12/10 04:29:20;;;;;;;17.47;15.03;;;7.10;72.10;;;;;;5049206;28;20631;-49
2020/12/10 04:31:47;;;;;;;19.30;16.00;;;7.10;72.40;;;;;;5049649;28;20726;-49
2020/12/10 04:34:14;;;;;;;20.20;17.30;;;7.10;72.70;;;;;;5049698;28;20665;-50
2020/12/10 04:36:41;;;;;;;18.87;16.57;;;7.10;73.00;;;;;;5049368;28;21074;-48
2020/12/10 04:39:07;;;;;;;17.60;14.47;;;7.20;72.70;;;;;;5041392;28;20632;-49
2020/12/10 04:41:36;;;;;;;20.13;15.90;;;7.10;72.30;;;;;;5030064;28;20633;-48
2020/12/10 04:44:03;;;;;;;18.47;14.47;;;7.10;72.30;;;;;;5029899;28;21483;-49
2020/12/10 04:46:30;;;;;;;18.43;15.80;;;7.20;72.40;;;;;;5043381;28;20682;-49
2020/12/10 04:48:57;;;;;;;16.00;13.30;;;7.20;72.40;;;;;;5048999;28;20686;-49
2020/12/10 04:51:23;;;;;;;19.50;14.43;;;7.20;72.00;;;;;;5049274;28;20647;-49
2020/12/10 04:53:50;;;;;;;19.13;15.27;;;7.20;72.00;;;;;;5049256;28;20679;-50
2020/12/10 04:56:17;;;;;;;21.60;16.30;;;7.20;71.80;;;;;;5035934;28;20655;-48
2020/12/10 04:58:45;;;;;;;18.07;14.60;;;7.20;71.40;;;;;;5049410;28;20715;-50
2020/12/10 05:01:14;;;;;;;16.63;14.93;;;7.20;71.10;;;;;;5047003;28;20674;-50
2020/12/10 05:03:42;;;;;;;18.90;15.17;;;7.20;71.20;;;;;;5042033;28;21033;-50
2020/12/10 05:06:10;;;;;;;19.17;15.60;;;7.20;71.20;;;;;;5028977;28;20613;-51
2020/12/10 05:08:40;;;;;;;19.50;17.10;;;7.10;71.40;;;;;;5039979;28;20612;-49
2020/12/10 05:11:07;;;;;;;18.47;16.60;;;7.10;71.60;;;;;;5052643;28;20681;-51
2020/12/10 05:13:34;;;;;;;18.40;15.50;;;7.10;72.00;;;;;;5052592;28;20697;-50
2020/12/10 05:16:03;;;;;;;19.40;17.43;;;7.20;72.00;;;;;;5053182;28;20729;-49
2020/12/10 05:18:36;;;;;;;19.23;16.67;;;7.10;72.00;;;;;;5052675;28;20619;-50
2020/12/10 05:21:03;;;;;;;18.13;14.40;;;7.20;72.00;;;;;;5032929;28;20657;-50
2020/12/10 05:23:31;;;;;;;18.97;15.20;;;7.20;72.30;;;;;;5045842;28;20624;-50
2020/12/10 05:26:02;;;;;;;22.03;17.87;;;7.10;71.90;;;;;;5052316;28;21170;-50
2020/12/10 05:28:40;;;;;;;23.30;15.40;;;7.20;71.90;;;;;;5051712;28;20691;-50
2020/12/10 05:31:09;;;;;;;19.30;16.10;;;7.10;71.30;;;;;;5041458;28;20665;-49
2020/12/10 05:33:36;;;;;;;17.07;15.37;;;7.10;71.10;;;;;;5037155;28;20617;-49
2020/12/10 05:36:06;;;;;;;17.10;14.50;;;7.10;71.40;;;;;;5034602;28;20664;-49
2020/12/10 05:38:54;;;;;;;19.50;14.93;;;7.10;71.60;;;;;;5033757;28;20620;-49
2020/12/10 05:41:22;;;;;;;21.23;15.23;;;7.10;72.00;;;;;;5032828;28;20661;-48
2020/12/10 05:43:49;;;;;;;19.00;14.20;;;7.10;72.00;;;;;;5042274;28;21245;-50
2020/12/10 05:46:18;;;;;;;18.57;16.40;;;7.10;71.80;;;;;;5051463;28;20974;-49
2020/12/10 05:48:45;;;;;;;20.97;17.20;;;7.00;71.60;;;;;;5051029;28;20716;-50
2020/12/10 05:51:15;;;;;;;24.10;17.50;;;7.00;71.80;;;;;;5052300;28;21056;-49
2020/12/10 05:53:43;;;;;;;20.47;15.97;;;7.10;72.60;;;;;;5052188;28;20685;-49
2020/12/10 05:56:12;;;;;;;21.47;17.30;;;7.10;72.30;;;;;;5052054;28;20726;-50
2020/12/10 05:58:52;;;;;;;21.40;15.63;;;7.10;72.20;;;;;;5050213;28;20627;-49
2020/12/10 06:01:26;;;;;;;17.80;15.40;;;7.10;72.20;;;;;;5031814;28;20657;-48
2020/12/10 06:03:56;;;;;;;17.80;15.90;;;7.10;72.30;;;;;;5032496;28;20614;-50
2020/12/10 06:06:24;;;;;;;17.43;15.40;;;7.10;72.70;;;;;;5032077;28;21166;-50
2020/12/10 06:08:52;;;;;;;19.50;16.07;;;7.20;72.80;;;;;;5048228;28;20974;-48
2020/12/10 06:11:19;;;;;;;20.00;16.07;;;7.20;72.50;;;;;;5051349;28;21203;-50
2020/12/10 06:13:49;;;;;;;21.10;16.80;;;7.20;72.10;;;;;;5042485;28;20629;-50
2020/12/10 06:16:17;;;;;;;21.03;16.90;;;7.30;71.90;;;;;;5041940;28;20686;-49
2020/12/10 06:19:00;;;;;;;21.37;16.60;;;7.30;72.00;;;;;;5051602;28;20698;-49
2020/12/10 06:21:34;;;;;;;19.77;16.20;;;7.30;71.90;;;;;;5051447;28;20686;-49
2020/12/10 06:24:04;;;;;;;18.33;15.30;;;7.20;71.50;;;;;;5051499;28;20632;-48
2020/12/10 06:26:35;;;;;;;21.20;16.13;;;7.30;71.50;;;;;;5033380;28;20674;-49
2020/12/10 06:29:22;;;;;;;20.60;15.83;;;7.30;70.70;;;;;;5051499;28;20627;-50
2020/12/10 06:32:06;;;;;;;19.97;16.90;;;7.20;70.10;;;;;;5031753;28;20773;-50
2020/12/10 06:34:35;;;;;;;18.27;15.27;;;7.20;69.60;;;;;;5047058;28;20700;-49
2020/12/10 06:37:25;;;;;;;19.40;14.97;;;7.10;69.10;;;;;;5051137;28;20964;-49
2020/12/10 06:39:56;;;;;;;20.73;16.90;;;7.20;69.40;;;;;;5047872;28;20723;-52
2020/12/10 06:42:23;;;;;;;23.30;17.30;;;7.10;69.60;;;;;;5050866;28;20698;-52
2020/12/10 06:44:51;;;;;;;18.63;14.73;;;7.10;69.80;;;;;;5048581;28;20666;-52
2020/12/10 06:47:18;;;;;;;18.17;15.00;;;7.00;69.60;;;;;;5050796;28;21175;-52
2020/12/10 06:49:46;;;;;;;19.40;15.67;;;7.00;69.60;;;;;;5050772;28;20660;-51
2020/12/10 06:52:18;;;;;;;18.37;14.57;;;7.00;69.80;;;;;;5051709;28;20639;-52
2020/12/10 06:55:07;;;;;;;18.33;14.80;;;6.90;69.70;;;;;;5050688;28;20642;-52
2020/12/10 06:57:50;;;;;;;20.70;16.73;;;6.90;70.20;;;;;;5037486;28;20651;-50
2020/12/10 07:00:38;;;;;;;25.00;18.27;;;6.90;70.40;;;;;;5048321;28;20658;-49
2020/12/10 07:03:14;;;;;;;21.07;18.33;;;6.90;70.60;;;;;;5049778;28;20622;-50
2020/12/10 07:05:42;;;;;;;24.40;16.10;;;6.90;70.60;;;;;;5052274;28;20677;-50
2020/12/10 07:08:09;;;;;;;19.07;16.17;;;6.90;70.40;;;;;;5049384;28;20921;-50
2020/12/10 07:10:50;;;;;;;20.20;14.60;;;6.90;70.20;;;;;;5050638;28;20655;-50
2020/12/10 07:13:19;;;;;;;22.83;18.03;;;6.90;70.20;;;;;;5031015;28;20672;-49
2020/12/10 07:15:49;;;;;;;23.57;18.83;;;6.90;70.10;;;;;;5049365;28;20639;-49
2020/12/10 07:18:16;;;;;;;22.00;18.67;;;6.90;70.30;;;;;;5046291;28;20827;-50
2020/12/10 07:20:44;;;;;;;16.27;13.27;;;6.90;70.40;;;;;;5050475;28;20727;-49
2020/12/10 07:23:10;;;;;;;17.60;13.10;;;6.80;70.20;;;;;;5050283;28;20634;-49
2020/12/10 07:25:37;;;;;;;19.10;15.47;;;6.70;70.10;;;;;;5048635;28;20693;-49
2020/12/10 07:28:05;;;;;;;16.87;12.37;;;6.70;70.40;;;;;;5049458;28;20700;-49
2020/12/10 07:30:33;;;;;;;17.60;14.27;;;6.70;70.40;;;;;;5049392;28;21193;-49
2020/12/10 07:33:00;;;;;;;15.40;12.10;;;6.70;69.90;;;;;;5049974;28;20619;-51
2020/12/10 07:35:28;;;;;;;14.80;12.90;;;6.70;69.50;;;;;;5049362;28;20628;-50
2020/12/10 07:37:56;;;;;;;16.60;13.67;;;6.80;69.00;;;;;;5030591;28;21011;-50
2020/12/10 07:40:23;;;;;;;12.90;11.33;;;6.80;69.00;;;;;;5030312;28;20693;-48
2020/12/10 07:42:51;;;;;;;18.73;12.60;;;6.70;69.00;;;;;;5042027;28;20626;-48
2020/12/10 07:45:19;;;;;;;16.30;12.30;;;6.80;69.70;;;;;;5049938;28;20740;-48
2020/12/10 07:47:55;;;;;;;11.83;10.70;;;6.80;69.80;;;;;;5050005;28;20628;-49
2020/12/10 07:50:23;;;;;;;11.80;10.37;;;6.80;69.00;;;;;;5048973;28;20667;-49
2020/12/10 07:52:50;;;;;;;15.23;11.83;;;6.80;68.80;;;;;;5048513;28;20627;-48
2020/12/10 07:55:20;;;;;;;15.30;12.80;;;6.70;68.30;;;;;;5048533;28;20745;-49
2020/12/10 07:57:56;;;;;;;13.23;10.30;;;6.70;68.30;;;;;;5046295;28;20783;-52
2020/12/10 08:00:24;;;;;;;12.13;10.33;;;6.70;68.70;;;;;;5049579;28;20658;-50
2020/12/10 08:03:05;;;;;;;15.77;13.43;;;6.60;68.50;;;;;;5048813;28;20634;-52
2020/12/10 08:05:32;;;;;;;13.60;12.00;;;6.70;68.70;;;;;;5049111;28;20659;-50
2020/12/10 08:07:59;;;;;;;11.70;9.80;;;6.70;68.50;;;;;;5049736;28;20675;-49
2020/12/10 08:10:41;;;;;;;12.00;9.00;;;6.70;68.80;;;;;;5049230;28;20655;-52
2020/12/10 08:13:12;;;;;;;11.80;9.43;;;6.80;68.10;;;;;;5048811;28;20716;-51
2020/12/10 08:15:39;;;;;;;12.50;8.83;;;6.80;68.20;;;;;;5048906;28;20654;-49
2020/12/10 08:18:07;;;;;;;9.27;8.27;;;6.80;68.40;;;;;;5048764;28;20659;-49
2020/12/10 08:20:37;;;;;;;11.10;9.77;;;6.90;68.30;;;;;;5048993;28;20662;-50
2020/12/10 08:23:04;;;;;;;8.70;7.73;;;6.90;68.40;;;;;;5049206;28;20684;-50
2020/12/10 08:25:31;;;;;;;8.37;6.97;;;6.90;67.40;;;;;;5048672;28;20627;-51
2020/12/10 08:30:49;;;;;;;9.97;8.27;;;6.90;67.80;;;;;;5048413;28;20721;-50
2020/12/10 08:33:17;;;;;;;9.73;8.73;;;6.90;67.70;;;;;;5049313;28;21004;-50
2020/12/10 08:35:46;;;;;;;10.63;8.20;;;6.90;67.40;;;;;;5048322;28;20643;-51
2020/12/10 08:40:57;;;;;;;11.57;10.33;;;6.90;67.70;;;;;;5042297;28;20682;-49
2020/12/10 08:43:25;;;;;;;13.87;10.27;;;6.90;68.00;;;;;;5052116;28;20666;-49
2020/12/10 08:45:52;;;;;;;13.40;10.80;;;6.90;67.80;;;;;;5052495;28;20633;-49
2020/12/10 08:48:25;;;;;;;12.83;11.53;;;6.90;68.20;;;;;;5052707;28;20647;-50
2020/12/10 08:50:53;;;;;;;13.30;11.17;;;7.00;67.60;;;;;;5052821;28;20651;-49
2020/12/10 08:53:20;;;;;;;11.63;10.43;;;7.00;67.20;;;;;;5053019;28;21022;-50
2020/12/10 08:55:48;;;;;;;12.97;10.60;;;7.00;66.80;;;;;;5052953;28;20661;-51
2020/12/10 08:58:17;;;;;;;15.10;11.80;;;7.00;67.10;;;;;;5052458;28;20748;-50
2020/12/10 09:00:44;;;;;;;11.03;9.90;;;7.10;67.30;;;;;;5052591;28;21080;-51
2020/12/10 09:05:52;;;;;;;14.00;10.50;;;7.10;66.50;;;;;;5052480;28;20631;-51
2020/12/10 09:08:19;;;;;;;11.87;9.43;;;7.10;66.10;;;;;;5052407;28;21255;-51
2020/12/10 09:10:46;;;;;;;13.17;10.80;;;7.10;66.40;;;;;;5052179;28;20681;-49
2020/12/10 09:13:13;;;;;;;12.80;10.80;;;7.00;66.80;;;;;;5052442;28;20631;-49
2020/12/10 09:15:42;;;;;;;11.50;10.20;;;7.00;67.40;;;;;;5052414;28;20628;-49
2020/12/10 09:18:10;;;;;;;13.97;10.90;;;7.00;68.00;;;;;;5052267;28;20686;-52
2020/12/10 09:20:37;;;;;;;13.13;11.50;;;7.10;67.60;;;;;;5051894;28;21037;-51
2020/12/10 09:23:03;;;;;;;10.90;9.83;;;7.20;67.60;;;;;;5052623;28;20619;-51
2020/12/10 09:25:30;;;;;;;11.60;10.10;;;7.20;67.20;;;;;;5051964;28;20634;-52
2020/12/10 09:27:57;;;;;;;13.50;10.67;;;7.20;66.20;;;;;;5051699;28;20950;-49
2020/12/10 09:33:20;;;;;;;10.20;8.77;;;7.10;66.10;;;;;;5051651;28;20669;-49
2020/12/10 09:35:48;;;;;;;9.83;8.73;;;7.00;66.20;;;;;;5050847;28;21226;-53
2020/12/10 09:38:17;;;;;;;11.93;9.20;;;6.90;67.00;;;;;;5052262;28;20982;-52
2020/12/10 09:40:43;;;;;;;12.30;9.57;;;6.90;67.40;;;;;;5051673;28;20753;-49
2020/12/10 09:43:10;;;;;;;10.93;9.83;;;6.90;67.20;;;;;;5051896;28;20989;-49
2020/12/10 09:45:37;;;;;;;13.13;10.57;;;6.80;67.10;;;;;;5051692;28;20628;-48
2020/12/10 09:48:04;;;;;;;12.80;11.47;;;6.90;67.50;;;;;;5051501;28;20614;-51
2020/12/10 09:50:34;;;;;;;12.57;9.90;;;6.90;67.70;;;;;;5051459;28;20659;-50
2020/12/10 09:53:07;;;;;;;11.50;10.30;;;7.00;67.50;;;;;;5050694;28;21175;-49
2020/12/10 09:55:48;;;;;;;12.20;9.77;;;7.10;67.40;;;;;;5051888;28;20707;-48
2020/12/10 09:58:14;;;;;;;10.60;9.30;;;7.00;66.50;;;;;;5051543;28;20694;-49
2020/12/10 10:00:49;;;;;;;11.40;9.37;;;7.10;66.70;;;;;;5051348;28;20728;-49
2020/12/10 10:03:17;;;;;;;9.87;8.03;;;7.10;66.30;;;;;;5050905;28;20705;-50
2020/12/10 10:05:45;;;;;;;15.07;8.73;;;7.10;66.00;;;;;;5051032;28;20667;-49
2020/12/10 10:08:48;;;;;;;12.37;9.57;;;7.10;66.20;;;;;;5049265;28;20631;-52
2020/12/10 10:11:47;;;;;;;12.77;9.67;;;7.00;65.40;;;;;;5051588;28;20666;-49
2020/12/10 10:14:15;;;;;;;6.90;6.10;;;7.00;65.90;;;;;;5050284;28;20661;-52
2020/12/10 10:19:23;;;;;;;6.77;6.07;;;7.10;65.20;;;;;;5051494;28;21052;-49
2020/12/10 10:21:50;;;;;;;6.30;5.70;;;7.10;65.10;;;;;;5051317;28;20620;-49
2020/12/10 10:24:16;;;;;;;7.33;6.63;;;7.10;65.40;;;;;;5050905;28;20775;-49
2020/12/10 10:26:44;;;;;;;8.20;7.13;;;7.10;65.60;;;;;;5050981;28;20628;-49
2020/12/10 10:29:12;;;;;;;11.03;7.37;;;7.20;65.00;;;;;;5050693;28;20725;-50
2020/12/10 10:32:05;;;;;;;8.60;7.80;;;7.30;65.20;;;;;;5050940;28;21033;-50
2020/12/10 10:34:32;;;;;;;7.33;6.00;;;7.30;64.80;;;;;;5049498;28;20634;-50
2020/12/10 10:36:59;;;;;;;7.20;6.50;;;7.30;64.40;;;;;;5050253;28;21217;-50
2020/12/10 10:39:26;;;;;;;7.80;6.13;;;7.40;64.30;;;;;;5050412;28;20626;-52
2020/12/10 10:41:53;;;;;;;7.10;6.07;;;7.40;63.80;;;;;;5038163;28;20689;-50
2020/12/10 10:44:21;;;;;;;6.93;6.23;;;7.50;63.60;;;;;;5030651;28;21028;-51
2020/12/10 10:46:49;;;;;;;8.30;6.30;;;7.50;63.90;;;;;;5030204;28;20681;-51
2020/12/10 10:52:04;;;;;;;8.00;7.20;;;7.50;63.20;;;;;;5029950;28;20624;-50
2020/12/10 10:54:31;;;;;;;8.17;6.40;;;7.50;63.00;;;;;;5029907;28;20624;-50
2020/12/10 10:57:15;;;;;;;6.67;5.90;;;7.50;62.80;;;;;;5030416;28;21241;-50
2020/12/10 11:02:25;;;;;;;7.87;6.53;;;7.30;63.10;;;;;;5049867;28;20685;-52
2020/12/10 11:04:53;;;;;;;8.93;6.47;;;7.30;62.90;;;;;;5048424;28;21151;-54
2020/12/10 11:07:19;;;;;;;6.37;5.77;;;7.40;62.80;;;;;;5049266;28;21262;-51
2020/12/10 11:12:27;;;;;;;7.13;6.07;;;7.20;63.90;;;;;;5046907;28;20713;-52
2020/12/10 11:14:54;;;;;;;7.47;6.77;;;7.10;64.10;;;;;;5048542;28;20652;-52
2020/12/10 11:17:21;;;;;;;6.23;5.63;;;7.20;64.40;;;;;;5049279;28;20665;-52
2020/12/10 11:19:49;;;;;;;6.40;5.70;;;7.20;63.60;;;;;;5049219;28;20663;-52
2020/12/10 11:22:38;;;;;;;7.17;6.13;;;7.30;62.60;;;;;;5049583;28;20625;-52
2020/12/10 11:25:05;;;;;;;5.93;5.33;;;7.30;62.70;;;;;;5048294;28;20631;-52
2020/12/10 11:27:33;;;;;;;7.43;6.63;;;7.30;62.70;;;;;;5049325;28;20621;-52
2020/12/10 11:30:00;;;;;;;6.30;5.70;;;7.30;62.60;;;;;;5048990;28;20716;-53
2020/12/10 11:32:27;;;;;;;6.20;5.60;;;7.30;62.60;;;;;;5048828;28;20628;-52
2020/12/10 11:34:54;;;;;;;7.40;6.70;;;7.30;62.50;;;;;;5048763;28;20657;-52
2020/12/10 11:42:48;;;;;;;7.80;6.37;;;7.30;62.70;;;;;;5048087;28;20619;-50
2020/12/10 11:45:50;;;;;;;7.13;6.07;;;7.30;63.00;;;;;;5048712;28;21136;-50
2020/12/10 11:48:17;;;;;;;7.40;6.70;;;7.30;62.90;;;;;;5048659;28;20672;-49
2020/12/10 11:50:44;;;;;;;8.73;7.70;;;7.40;63.10;;;;;;5047176;28;20681;-51
2020/12/10 11:53:51;;;;;;;8.53;7.73;;;7.40;63.50;;;;;;5047342;28;21214;-49
2020/12/10 11:56:18;;;;;;;9.27;7.17;;;7.40;63.80;;;;;;5049017;28;20697;-48
2020/12/10 11:58:45;;;;;;;8.17;7.13;;;7.50;63.90;;;;;;5047795;28;21296;-49
2020/12/10 12:01:15;;;;;;;9.03;7.47;;;7.50;63.50;;;;;;5027633;28;630053;-49
2020/12/10 12:06:25;;;;;;;8.27;7.47;;;7.50;62.20;;;;;;5049589;28;20684;-49
2020/12/10 12:11:33;;;;;;;8.60;7.60;;;7.50;62.50;;;;;;5048901;28;20666;-49
2020/12/10 12:14:00;;;;;;;7.07;6.23;;;7.40;62.90;;;;;;5048875;28;20713;-50
2020/12/10 12:16:27;;;;;;;9.40;7.77;;;7.50;62.40;;;;;;5047677;28;20724;-53
2020/12/10 12:18:54;;;;;;;6.90;6.20;;;7.50;62.90;;;;;;5047682;28;20675;-51
2020/12/10 12:21:25;;;;;;;7.83;7.10;;;7.40;63.30;;;;;;5046342;28;21233;-50
2020/12/10 12:23:52;;;;;;;10.97;7.60;;;7.30;63.50;;;;;;5048304;28;20995;-51
2020/12/10 12:26:19;;;;;;;9.93;8.20;;;7.40;64.20;;;;;;5048317;28;20620;-52
2020/12/10 12:28:49;;;;;;;9.30;8.37;;;7.40;63.80;;;;;;5049104;28;20621;-51
2020/12/10 12:31:39;;;;;;;10.10;9.10;;;7.30;63.90;;;;;;5047402;28;20676;-50
2020/12/10 12:34:06;;;;;;;10.10;7.60;;;7.30;63.70;;;;;;5049119;28;20632;-50
2020/12/10 12:36:34;;;;;;;8.40;6.70;;;7.30;64.20;;;;;;5048760;28;21161;-49
2020/12/10 12:39:01;;;;;;;8.30;7.50;;;7.30;63.60;;;;;;5049366;28;20664;-49
2020/12/10 12:41:28;;;;;;;8.67;7.87;;;7.30;63.40;;;;;;5046113;28;20651;-51
2020/12/10 12:46:38;;;;;;;8.60;7.63;;;7.20;63.40;;;;;;5028846;28;20671;-52
2020/12/10 12:51:56;;;;;;;8.40;7.60;;;7.10;62.80;;;;;;5028999;28;20677;-49
2020/12/10 12:57:09;;;;;;;11.13;7.77;;;7.30;63.30;;;;;;5025096;28;21185;-51
2020/12/10 12:59:36;;;;;;;9.87;8.40;;;7.40;63.10;;;;;;5043243;28;20676;-51
2020/12/10 13:02:23;;;;;;;10.43;9.43;;;7.40;63.30;;;;;;5048767;28;20639;-49
2020/12/10 13:04:58;;;;;;;10.60;9.47;;;7.50;63.60;;;;;;5046757;28;20673;-51
2020/12/10 13:10:15;;;;;;;12.10;9.30;;;7.60;63.50;;;;;;5043376;28;20717;-50
2020/12/10 13:12:42;;;;;;;8.13;7.43;;;7.60;62.70;;;;;;5048512;28;20627;-50
2020/12/10 13:18:16;;;;;;;10.10;9.07;;;7.60;61.90;;;;;;5048445;28;20721;-50
2020/12/10 13:20:52;;;;;;;11.70;8.50;;;7.70;62.10;;;;;;5048342;28;21235;-50
2020/12/10 13:26:03;;;;;;;10.83;9.83;;;7.70;61.70;;;;;;5027659;28;20675;-49
2020/12/10 13:28:32;;;;;;;9.40;8.40;;;7.70;61.80;;;;;;5030783;28;20638;-51
2020/12/10 13:33:56;;;;;;;12.50;10.23;;;7.60;61.70;;;;;;5020441;28;20618;-51
2020/12/10 13:36:23;;;;;;;11.43;8.97;;;7.50;61.80;;;;;;5031917;28;20686;-48
2020/12/10 13:39:06;;;;;;;11.13;10.03;;;7.40;61.80;;;;;;5031781;28;20739;-52
2020/12/10 13:41:32;;;;;;;13.60;11.27;;;7.40;62.50;;;;;;5032184;28;21107;-52
2020/12/10 13:47:06;;;;;;;14.70;13.20;;;7.50;62.00;;;;;;5052780;28;20628;-52